createdAt,value
2023-10-26T00:00:16.480Z,33.88
2023-10-26T00:03:15.784Z,37.38
2023-10-26T00:06:08.823Z,33.05
2023-10-26T00:09:08.761Z,32.03
2023-10-26T00:12:26.175Z,27.77
2023-10-26T00:15:18.043Z,26.15
2023-10-26T00:18:01.000Z,36.95
2023-10-26T00:20:39.449Z,31.23
2023-10-26T00:26:03.346Z,37.47
2023-10-26T00:28:50.689Z,40.28
2023-10-26T00:31:35.027Z,39.90
2023-10-26T00:34:27.493Z,44.05
2023-10-26T00:40:26.776Z,51.25
2023-10-26T00:42:35.713Z,47.20
2023-10-26T00:43:24.709Z,42.17
2023-10-26T00:46:01.546Z,42.47
2023-10-26T00:49:08.498Z,41.03
2023-10-26T00:52:30.431Z,42.60
2023-10-26T00:56:01.260Z,44.75
2023-10-26T01:01:57.297Z,51.90
2023-10-26T01:04:11.332Z,40.70
2023-10-26T01:07:44.408Z,48.92
2023-10-26T01:10:31.868Z,46.17
2023-10-26T01:15:28.684Z,47.25
2023-10-26T01:16:55.206Z,38.75
2023-10-26T01:19:32.151Z,35.70
2023-10-26T01:22:26.420Z,33.67
2023-10-26T01:25:33.701Z,46.45
2023-10-26T01:28:15.411Z,61.53
2023-10-26T01:30:57.282Z,35.85
2023-10-26T01:33:30.137Z,30.08
2023-10-26T01:38:48.205Z,30.60
2023-10-26T01:41:37.183Z,34.30
2023-10-26T01:47:41.654Z,31.15
2023-10-26T01:50:56.088Z,25.77
2023-10-26T01:53:40.501Z,29.90
2023-10-26T01:56:12.283Z,28.83
2023-10-26T01:58:43.509Z,29.00
2023-10-26T02:01:48.709Z,29.98
2023-10-26T02:04:39.805Z,36.65
2023-10-26T02:07:38.870Z,32.97
2023-10-26T02:10:11.853Z,30.30
2023-10-26T02:12:51.968Z,29.73
2023-10-26T02:15:45.496Z,32.33
2023-10-26T02:18:43.730Z,26.35
2023-10-26T02:21:19.680Z,42.72
2023-10-26T02:24:03.983Z,62.63
2023-10-26T02:26:46.020Z,68.78
2023-10-26T02:29:48.501Z,61.17
2023-10-26T02:34:39.557Z,55.10
2023-10-26T02:39:18.163Z,44.70
2023-10-26T02:40:53.492Z,49.88
2023-10-26T02:41:16.467Z,51.85
2023-10-26T02:44:21.420Z,52.67
2023-10-26T02:47:26.031Z,53.88
2023-10-26T02:50:00.292Z,45.03
2023-10-26T02:52:45.044Z,44.70
2023-10-26T02:55:26.736Z,226.18
2023-10-26T02:57:53.859Z,168.52
2023-10-26T03:00:21.117Z,359.75
2023-10-26T03:02:48.771Z,376.98
2023-10-26T03:05:16.464Z,299.73
2023-10-26T03:07:47.813Z,133.77
2023-10-26T03:10:14.966Z,275.30
2023-10-26T03:12:42.187Z,103.05
2023-10-26T03:15:10.006Z,180.30
2023-10-26T03:17:37.261Z,40.95
2023-10-26T03:20:06.379Z,120.57
2023-10-26T03:22:35.568Z,104.05
2023-10-26T03:25:06.236Z,37.17
2023-10-26T03:27:33.471Z,43.88
2023-10-26T03:30:00.675Z,294.00
2023-10-26T03:32:27.814Z,37.47
2023-10-26T03:34:55.043Z,82.70
2023-10-26T03:37:22.201Z,37.22
2023-10-26T03:39:49.423Z,32.45
2023-10-26T03:42:16.542Z,34.78
2023-10-26T03:44:43.887Z,39.72
2023-10-26T03:47:11.134Z,72.53
2023-10-26T03:49:38.360Z,176.85
2023-10-26T03:52:06.310Z,147.00
2023-10-26T03:54:33.539Z,240.73
2023-10-26T03:57:00.733Z,209.00
2023-10-26T03:59:27.886Z,129.27
2023-10-26T04:01:55.001Z,205.75
2023-10-26T04:04:22.160Z,140.57
2023-10-26T04:06:49.300Z,72.00
2023-10-26T04:09:16.702Z,40.42
2023-10-26T04:11:45.833Z,99.45
2023-10-26T04:14:13.483Z,313.98
2023-10-26T04:16:40.714Z,28.33
2023-10-26T04:19:07.853Z,28.90
2023-10-26T04:21:35.015Z,26.92
2023-10-26T04:24:02.318Z,103.70
2023-10-26T04:26:29.662Z,257.75
2023-10-26T04:28:56.744Z,178.55
2023-10-26T04:31:24.331Z,209.40
2023-10-26T04:33:52.333Z,86.65
2023-10-26T04:36:23.049Z,25.92
2023-10-26T04:38:51.521Z,233.13
2023-10-26T04:41:19.041Z,168.95
2023-10-26T04:43:46.284Z,268.38
2023-10-26T04:46:13.392Z,217.55
2023-10-26T04:48:40.689Z,244.27
2023-10-26T04:51:09.774Z,237.05
2023-10-26T04:53:37.079Z,203.60
2023-10-26T04:56:04.518Z,185.52
2023-10-26T04:58:31.595Z,149.73
2023-10-26T05:01:00.386Z,109.18
2023-10-26T05:03:27.617Z,111.38
2023-10-26T05:05:54.777Z,111.80
2023-10-26T05:08:21.894Z,77.03
2023-10-26T05:10:49.120Z,107.78
2023-10-26T05:13:16.250Z,95.45
2023-10-26T05:15:46.418Z,112.93
2023-10-26T05:18:13.587Z,88.70
2023-10-26T05:20:41.084Z,94.30
2023-10-26T05:23:09.434Z,76.82
2023-10-26T05:25:37.874Z,76.03
2023-10-26T05:28:05.358Z,80.38
2023-10-26T05:30:32.518Z,76.97
2023-10-26T05:32:59.868Z,54.97
2023-10-26T05:35:27.588Z,50.90
2023-10-26T05:37:54.711Z,53.90
2023-10-26T05:40:21.812Z,61.55
2023-10-26T05:42:48.908Z,53.70
2023-10-26T05:45:16.164Z,42.08
2023-10-26T05:47:43.381Z,62.03
2023-10-26T05:50:11.969Z,52.20
2023-10-26T05:52:39.113Z,102.30
2023-10-26T05:55:06.771Z,175.18
2023-10-26T05:57:33.867Z,409.05
2023-10-26T06:00:01.046Z,235.32
2023-10-26T06:02:28.350Z,354.20
2023-10-26T06:04:55.522Z,404.55
2023-10-26T06:07:23.643Z,347.88
2023-10-26T06:09:51.310Z,313.42
2023-10-26T06:12:18.715Z,175.43
2023-10-26T06:14:45.762Z,290.17
2023-10-26T06:17:12.803Z,304.88
2023-10-26T06:19:39.887Z,224.10
2023-10-26T06:22:06.939Z,203.82
2023-10-26T06:24:34.285Z,44.40
2023-10-26T06:27:01.480Z,87.93
2023-10-26T06:29:28.618Z,225.10
2023-10-26T06:31:55.728Z,108.78
2023-10-26T06:34:22.831Z,83.88
2023-10-26T06:36:50.226Z,53.33
2023-10-26T06:39:17.486Z,40.35
2023-10-26T06:41:44.641Z,46.67
2023-10-26T06:44:16.941Z,53.47
2023-10-26T06:46:44.086Z,61.80
2023-10-26T06:49:26.636Z,57.08
2023-10-26T06:51:57.104Z,56.05
2023-10-26T06:54:24.252Z,67.85
2023-10-26T06:56:51.415Z,50.45
2023-10-26T06:59:18.497Z,49.90
2023-10-26T07:02:08.886Z,87.97
2023-10-26T07:04:33.273Z,94.03
2023-10-26T07:07:00.549Z,83.85
2023-10-26T07:09:27.798Z,91.43
2023-10-26T07:11:54.959Z,75.80
2023-10-26T07:14:24.589Z,94.70
2023-10-26T07:16:51.737Z,92.80
2023-10-26T07:19:18.847Z,87.78
2023-10-26T07:21:46.027Z,81.88
2023-10-26T07:24:13.446Z,95.85
2023-10-26T07:26:40.565Z,88.13
2023-10-26T07:29:07.775Z,86.90
2023-10-26T07:31:34.947Z,89.18
2023-10-26T07:34:02.070Z,89.25
2023-10-26T07:36:31.790Z,85.32
2023-10-26T07:39:47.570Z,87.40
2023-10-26T07:42:07.130Z,82.65
2023-10-26T07:44:37.236Z,89.60
2023-10-26T07:47:05.584Z,86.25
2023-10-26T07:49:32.755Z,92.00
2023-10-26T07:51:59.800Z,83.88
2023-10-26T07:54:26.929Z,83.90
2023-10-26T07:56:54.056Z,89.53
2023-10-26T07:59:21.152Z,92.65
2023-10-26T08:01:49.423Z,92.50
2023-10-26T08:04:16.735Z,90.32
2023-10-26T08:06:43.885Z,89.32
2023-10-26T08:09:11.065Z,83.47
2023-10-26T08:11:38.900Z,85.57
2023-10-26T08:14:33.940Z,77.97
2023-10-26T08:16:53.797Z,77.68
2023-10-26T08:19:21.434Z,69.68
2023-10-26T08:21:48.721Z,73.75
2023-10-26T08:24:17.355Z,73.95
2023-10-26T08:26:44.466Z,69.88
2023-10-26T08:29:18.553Z,69.38
2023-10-26T08:31:54.352Z,61.25
2023-10-26T08:34:21.544Z,62.50
2023-10-26T08:37:02.067Z,69.15
2023-10-26T08:39:36.494Z,60.15
2023-10-26T08:42:04.777Z,58.33
2023-10-26T08:44:33.196Z,55.05
2023-10-26T08:47:04.134Z,58.55
2023-10-26T08:49:34.778Z,62.00
2023-10-26T08:52:02.308Z,53.70
2023-10-26T08:54:29.446Z,52.65
2023-10-26T08:56:56.667Z,45.58
2023-10-26T08:59:26.278Z,48.83
2023-10-26T09:01:54.032Z,45.97
2023-10-26T09:04:21.508Z,46.42
2023-10-26T09:06:54.626Z,42.10
2023-10-26T09:09:23.519Z,47.50
2023-10-26T09:11:50.773Z,43.58
2023-10-26T09:14:20.573Z,40.00
2023-10-26T09:16:49.220Z,46.00
2023-10-26T09:19:19.477Z,40.40
2023-10-26T09:21:56.553Z,41.15
2023-10-26T09:24:30.239Z,40.53
2023-10-26T09:27:01.478Z,46.83
2023-10-26T09:29:42.433Z,42.80
2023-10-26T09:32:10.683Z,42.33
2023-10-26T09:34:43.861Z,38.75
2023-10-26T09:37:12.603Z,43.63
2023-10-26T09:39:42.780Z,42.00
2023-10-26T09:42:12.577Z,49.08
2023-10-26T09:44:40.607Z,40.45
2023-10-26T09:47:08.742Z,38.38
2023-10-26T09:49:36.086Z,47.35
2023-10-26T09:52:03.831Z,45.03
2023-10-26T09:54:40.106Z,40.88
2023-10-26T09:57:27.634Z,41.22
2023-10-26T09:59:56.518Z,39.42
2023-10-26T10:02:26.392Z,39.08
2023-10-26T10:04:53.490Z,43.00
2023-10-26T10:07:44.573Z,39.00
2023-10-26T10:10:14.121Z,37.10
2023-10-26T10:12:43.772Z,35.85
2023-10-26T10:17:46.039Z,33.83
2023-10-26T10:20:16.397Z,36.92
2023-10-26T10:22:46.906Z,44.75
2023-10-26T10:25:17.536Z,42.03
2023-10-26T10:27:50.850Z,36.30
2023-10-26T10:30:22.742Z,34.35
2023-10-26T10:32:51.956Z,33.57
2023-10-26T10:35:25.012Z,35.03
2023-10-26T10:38:20.254Z,43.03
2023-10-26T10:40:56.361Z,34.50
2023-10-26T10:43:46.782Z,34.55
2023-10-26T10:46:21.360Z,33.22
2023-10-26T10:49:07.988Z,33.55
2023-10-26T10:51:39.652Z,31.35
2023-10-26T10:56:49.783Z,34.30
2023-10-26T10:59:26.698Z,31.17
2023-10-26T11:02:23.220Z,24.90
2023-10-26T11:05:12.762Z,33.03
2023-10-26T11:07:43.805Z,31.30
2023-10-26T11:10:11.921Z,29.42
2023-10-26T11:12:39.187Z,30.30
2023-10-26T11:15:08.788Z,26.63
2023-10-26T11:17:36.726Z,27.30
2023-10-26T11:20:04.456Z,26.30
2023-10-26T11:22:32.085Z,25.30
2023-10-26T11:25:00.288Z,24.60
2023-10-26T11:27:30.362Z,23.33
2023-10-26T11:30:09.517Z,22.40
2023-10-26T11:32:36.850Z,24.35
2023-10-26T11:35:08.241Z,26.00
2023-10-26T11:37:44.486Z,25.90
2023-10-26T11:40:13.953Z,25.33
2023-10-26T11:43:04.512Z,24.58
2023-10-26T11:45:49.340Z,21.98
2023-10-26T11:48:30.488Z,22.88
2023-10-26T11:50:59.092Z,20.48
2023-10-26T11:53:27.718Z,23.70
2023-10-26T11:55:54.899Z,20.25
2023-10-26T11:58:22.244Z,19.83
2023-10-26T12:00:49.382Z,20.63
2023-10-26T12:03:16.542Z,20.17
2023-10-26T12:05:43.758Z,21.40
2023-10-26T12:08:10.881Z,19.80
2023-10-26T12:10:41.315Z,20.90
2023-10-26T12:13:08.508Z,19.83
2023-10-26T12:15:37.339Z,22.73
2023-10-26T12:18:04.794Z,22.80
2023-10-26T12:20:32.017Z,23.10
2023-10-26T12:22:59.103Z,19.63
2023-10-26T12:25:26.294Z,21.63
2023-10-26T12:28:21.221Z,20.58
2023-10-26T12:30:41.229Z,20.52
2023-10-26T12:33:08.419Z,17.63
2023-10-26T12:35:35.494Z,18.90
2023-10-26T12:38:02.659Z,21.02
2023-10-26T12:40:29.795Z,22.35
2023-10-26T12:42:59.020Z,22.17
2023-10-26T12:45:26.367Z,18.52
2023-10-26T12:47:54.686Z,20.17
2023-10-26T12:50:21.908Z,25.75
2023-10-26T12:52:49.123Z,26.38
2023-10-26T12:55:16.287Z,27.35
2023-10-26T12:57:44.730Z,27.63
2023-10-26T13:00:12.739Z,28.58
2023-10-26T13:02:39.816Z,29.85
2023-10-26T13:05:07.193Z,28.65
2023-10-26T13:07:35.196Z,29.92
2023-10-26T13:10:03.061Z,28.20
2023-10-26T13:12:30.456Z,27.58
2023-10-26T13:15:02.429Z,28.98
2023-10-26T13:17:31.981Z,29.33
2023-10-26T13:19:59.291Z,25.50
2023-10-26T13:22:26.538Z,23.83
2023-10-26T13:24:53.741Z,27.75
2023-10-26T13:27:20.889Z,26.63
2023-10-26T13:29:48.199Z,27.13
2023-10-26T13:32:15.332Z,24.73
2023-10-26T13:34:42.516Z,26.27
2023-10-26T13:37:09.840Z,25.48
2023-10-26T13:39:36.938Z,25.63
2023-10-26T13:42:04.339Z,21.67
2023-10-26T13:44:31.479Z,23.27
2023-10-26T13:46:58.682Z,19.92
2023-10-26T13:49:25.788Z,20.20
2023-10-26T13:51:53.461Z,20.67
2023-10-26T13:54:20.683Z,21.42
2023-10-26T13:56:48.111Z,21.08
2023-10-26T13:59:15.311Z,18.38
2023-10-26T14:01:42.592Z,20.85
2023-10-26T14:04:09.898Z,21.70
2023-10-26T14:06:37.330Z,20.13
2023-10-26T14:09:04.752Z,18.13
2023-10-26T14:11:32.668Z,19.13
2023-10-26T14:13:59.942Z,19.02
2023-10-26T14:16:29.691Z,22.88
2023-10-26T14:19:00.617Z,22.15
2023-10-26T14:21:28.121Z,19.45
2023-10-26T14:23:55.219Z,18.35
2023-10-26T14:26:22.365Z,18.92
2023-10-26T14:28:49.633Z,17.92
2023-10-26T14:31:17.666Z,17.27
2023-10-26T14:33:45.024Z,19.85
2023-10-26T14:36:12.177Z,19.80
2023-10-26T14:38:39.278Z,20.45
2023-10-26T14:41:06.377Z,20.88
2023-10-26T14:43:33.497Z,18.90
2023-10-26T14:46:00.783Z,18.98
2023-10-26T14:48:27.899Z,18.35
2023-10-26T14:51:01.069Z,19.95
2023-10-26T14:53:28.311Z,19.52
2023-10-26T14:56:01.274Z,17.73
2023-10-26T14:58:28.699Z,18.15
2023-10-26T15:00:57.282Z,15.90
2023-10-26T15:03:25.356Z,17.35
2023-10-26T15:05:52.592Z,17.88
2023-10-26T15:08:19.818Z,18.58
2023-10-26T15:10:47.945Z,17.13
2023-10-26T15:13:19.836Z,18.92
2023-10-26T15:15:50.829Z,16.85
2023-10-26T15:18:17.953Z,18.20
2023-10-26T15:20:45.039Z,19.15
2023-10-26T15:23:12.134Z,21.85
2023-10-26T15:25:39.308Z,21.73
2023-10-26T15:28:06.522Z,22.35
2023-10-26T15:30:33.870Z,21.70
2023-10-26T15:33:01.257Z,24.08
2023-10-26T15:35:28.864Z,20.58
2023-10-26T15:37:56.123Z,22.80
2023-10-26T15:40:26.064Z,19.70
2023-10-26T15:42:53.340Z,21.95
2023-10-26T15:45:21.839Z,22.65
2023-10-26T15:47:49.230Z,24.40
2023-10-26T15:50:17.089Z,23.55
2023-10-26T15:52:44.528Z,21.63
2023-10-26T15:55:11.998Z,18.13
2023-10-26T15:57:41.950Z,21.77
2023-10-26T16:00:10.836Z,24.27
2023-10-26T16:02:46.221Z,23.55
2023-10-26T16:05:13.793Z,24.48
2023-10-26T16:07:42.438Z,22.23
2023-10-26T16:10:11.194Z,25.52
2023-10-26T16:12:41.297Z,26.23
2023-10-26T16:15:09.464Z,26.20
2023-10-26T16:17:37.965Z,25.05
2023-10-26T16:20:05.981Z,30.58
2023-10-26T16:22:33.126Z,30.92
2023-10-26T16:25:00.443Z,30.40
2023-10-26T16:27:28.102Z,32.13
2023-10-26T16:29:55.523Z,31.90
2023-10-26T16:32:28.247Z,31.58
2023-10-26T16:37:34.390Z,30.15
2023-10-26T16:40:31.867Z,32.33
2023-10-26T16:46:30.080Z,43.28
2023-10-26T16:48:45.880Z,31.30
2023-10-26T16:49:29.813Z,41.88
2023-10-26T16:52:53.249Z,42.10
2023-10-26T16:55:28.424Z,45.17
2023-10-26T16:58:01.767Z,41.17
2023-10-26T17:00:36.411Z,43.55
2023-10-26T17:06:26.801Z,37.38
2023-10-26T17:08:56.681Z,41.97
2023-10-26T17:14:58.988Z,70.20
2023-10-26T17:17:50.250Z,103.72
2023-10-26T17:20:25.068Z,54.92
2023-10-26T17:26:41.920Z,45.75
2023-10-26T17:31:55.356Z,42.58
2023-10-26T17:34:42.874Z,54.95
2023-10-26T17:37:18.481Z,42.83
2023-10-26T17:37:45.730Z,49.67
2023-10-26T17:40:02.029Z,46.90
2023-10-26T17:43:15.835Z,47.50
2023-10-26T17:49:53.228Z,42.03
2023-10-26T17:55:53.410Z,39.53
2023-10-26T18:02:01.671Z,37.58
2023-10-26T18:02:12.203Z,42.58
2023-10-26T18:08:27.813Z,46.38
2023-10-26T18:08:40.680Z,50.83
2023-10-26T18:12:05.817Z,49.00
2023-10-26T18:14:28.687Z,51.55
2023-10-26T18:17:06.222Z,51.90
2023-10-26T18:19:33.787Z,54.45
2023-10-26T18:22:01.209Z,50.95
2023-10-26T18:24:28.577Z,52.65
2023-10-26T18:26:55.974Z,46.72
2023-10-26T18:29:23.447Z,46.58
2023-10-26T18:31:50.900Z,47.90
2023-10-26T18:34:19.454Z,53.80
2023-10-26T18:36:46.768Z,51.15
2023-10-26T18:39:14.020Z,51.97
2023-10-26T18:41:41.242Z,55.60
2023-10-26T18:44:09.148Z,53.78
2023-10-26T18:46:36.493Z,53.58
2023-10-26T18:49:04.134Z,57.97
2023-10-26T18:51:31.626Z,61.90
2023-10-26T18:53:58.894Z,50.85
2023-10-26T18:56:26.217Z,52.65
2023-10-26T18:58:54.297Z,49.00
2023-10-26T19:01:26.964Z,58.15
2023-10-26T19:04:02.149Z,55.20
2023-10-26T19:06:32.941Z,53.85
2023-10-26T19:09:00.332Z,54.15
2023-10-26T19:11:29.210Z,57.17
2023-10-26T19:13:56.962Z,60.85
2023-10-26T19:16:24.679Z,58.97
2023-10-26T19:18:55.846Z,58.47
2023-10-26T19:21:23.497Z,50.45
2023-10-26T19:23:51.061Z,52.05
2023-10-26T19:26:18.369Z,49.75
2023-10-26T19:28:45.733Z,49.20
2023-10-26T19:31:13.403Z,49.30
2023-10-26T19:33:46.792Z,47.53
2023-10-26T19:36:14.102Z,49.95
2023-10-26T19:38:41.431Z,51.78
2023-10-26T19:41:08.780Z,49.17
2023-10-26T19:43:36.011Z,46.20
2023-10-26T19:46:03.388Z,45.67
2023-10-26T19:48:30.818Z,49.38
2023-10-26T19:51:00.327Z,48.22
2023-10-26T19:53:34.600Z,47.67
2023-10-26T19:56:05.790Z,46.03
2023-10-26T19:58:33.090Z,51.28
2023-10-26T20:01:00.708Z,47.83
2023-10-26T20:03:28.063Z,49.92
2023-10-26T20:05:55.281Z,48.47
2023-10-26T20:12:04.037Z,51.00
2023-10-26T20:17:45.038Z,49.75
2023-10-26T20:23:34.896Z,51.85
2023-10-26T20:26:18.876Z,46.05
2023-10-26T20:29:17.754Z,49.92
2023-10-26T20:37:19.609Z,51.45
2023-10-26T20:37:38.794Z,44.65
2023-10-26T20:40:03.947Z,50.28
2023-10-26T20:45:14.401Z,50.58
2023-10-26T20:46:01.692Z,53.75
2023-10-26T20:48:35.101Z,56.03
2023-10-26T20:51:18.345Z,47.47
2023-10-26T20:53:53.661Z,45.50
2023-10-26T20:56:47.121Z,45.78
2023-10-26T20:59:40.258Z,41.55
2023-10-26T21:02:42.885Z,46.55
2023-10-26T21:06:36.762Z,44.42
2023-10-26T21:08:59.637Z,40.08
2023-10-26T21:11:36.210Z,41.35
2023-10-26T21:15:20.605Z,43.83
2023-10-26T21:17:36.287Z,45.22
2023-10-26T21:20:37.672Z,47.50
2023-10-26T21:23:22.764Z,51.30
2023-10-26T21:26:18.722Z,41.90
2023-10-26T21:29:24.192Z,44.50
2023-10-26T21:32:18.238Z,45.58
2023-10-26T21:35:01.581Z,43.63
2023-10-26T21:41:40.801Z,46.47
2023-10-26T21:44:07.958Z,49.55
2023-10-26T21:46:35.289Z,51.20
2023-10-26T21:49:32.098Z,57.17
2023-10-26T21:52:14.795Z,52.80
2023-10-26T21:54:52.497Z,58.47
2023-10-26T21:58:25.892Z,55.50
2023-10-26T22:00:26.618Z,57.90
2023-10-26T22:03:31.836Z,56.58
2023-10-26T22:06:01.356Z,64.13
2023-10-26T22:08:31.187Z,59.28
2023-10-26T22:11:28.439Z,57.33
2023-10-26T22:14:37.173Z,58.95
2023-10-26T22:17:34.540Z,50.08
2023-10-26T22:23:11.945Z,51.03
2023-10-26T22:26:38.897Z,45.28
2023-10-26T22:29:39.054Z,44.33
2023-10-26T22:32:21.213Z,41.40
2023-10-26T22:34:56.316Z,43.40
2023-10-26T22:40:53.611Z,41.60
2023-10-26T22:43:53.337Z,42.28
2023-10-26T22:46:27.899Z,46.08
2023-10-26T22:46:31.813Z,41.90
2023-10-26T22:49:01.413Z,35.78
2023-10-26T22:51:33.825Z,40.85
2023-10-26T22:54:38.242Z,43.20
2023-10-26T22:57:06.965Z,38.72
2023-10-26T23:00:22.214Z,41.72
2023-10-26T23:03:02.398Z,38.70
2023-10-26T23:05:50.784Z,35.70
2023-10-26T23:08:28.237Z,33.55
2023-10-26T23:11:16.126Z,30.02
2023-10-26T23:14:32.522Z,34.95
2023-10-26T23:20:12.250Z,33.65
2023-10-26T23:20:33.358Z,35.53
2023-10-26T23:22:39.338Z,33.40
2023-10-26T23:25:07.484Z,34.40
2023-10-26T23:27:36.889Z,31.63
2023-10-26T23:30:07.415Z,33.03
2023-10-26T23:32:36.369Z,31.77
2023-10-26T23:38:48.805Z,33.55
2023-10-26T23:41:10.364Z,30.00
2023-10-26T23:41:15.944Z,32.92
2023-10-26T23:43:43.251Z,31.80
2023-10-26T23:46:10.553Z,34.50
2023-10-26T23:48:40.140Z,35.63
2023-10-26T23:51:16.574Z,36.83
2023-10-26T23:53:43.767Z,31.80
2023-10-26T23:56:24.758Z,32.50
2023-10-26T23:58:53.061Z,31.48
